sensor_id;sensor_type;location;lat;lon;timestamp;P1;durP1;ratioP1;P2;durP2;ratioP2
28009;SDS011;15334;49.494;8.410;2023-02-01T00:01:29;3.60;;;2.38;;
28009;SDS011;15334;49.494;8.410;2023-02-01T00:03:57;7.82;;;2.50;;
28009;SDS011;15334;49.494;8.410;2023-02-01T00:06:25;4.22;;;2.42;;
28009;SDS011;15334;49.494;8.410;2023-02-01T00:08:53;7.00;;;3.58;;
28009;SDS011;15334;49.494;8.410;2023-02-01T00:11:22;8.15;;;3.40;;
28009;SDS011;15334;49.494;8.410;2023-02-01T00:13:51;8.55;;;3.38;;
28009;SDS011;15334;49.494;8.410;2023-02-01T00:16:19;5.63;;;3.05;;
28009;SDS011;15334;49.494;8.410;2023-02-01T00:18:49;9.25;;;3.22;;
28009;SDS011;15334;49.494;8.410;2023-02-01T00:21:21;13.07;;;3.97;;
28009;SDS011;15334;49.494;8.410;2023-02-01T00:23:49;10.32;;;3.53;;
28009;SDS011;15334;49.494;8.410;2023-02-01T00:26:18;10.38;;;4.72;;
28009;SDS011;15334;49.494;8.410;2023-02-01T00:28:49;6.68;;;3.88;;
28009;SDS011;15334;49.494;8.410;2023-02-01T00:31:17;7.63;;;4.18;;
28009;SDS011;15334;49.494;8.410;2023-02-01T00:33:46;7.63;;;4.30;;
28009;SDS011;15334;49.494;8.410;2023-02-01T00:36:14;9.07;;;3.63;;
28009;SDS011;15334;49.494;8.410;2023-02-01T00:38:43;8.13;;;3.35;;
28009;SDS011;15334;49.494;8.410;2023-02-01T00:41:12;6.60;;;3.40;;
28009;SDS011;15334;49.494;8.410;2023-02-01T00:43:42;5.25;;;3.55;;
28009;SDS011;15334;49.494;8.410;2023-02-01T00:46:13;7.47;;;3.22;;
28009;SDS011;15334;49.494;8.410;2023-02-01T00:48:43;6.97;;;3.38;;
28009;SDS011;15334;49.494;8.410;2023-02-01T00:51:13;7.40;;;3.63;;
28009;SDS011;15334;49.494;8.410;2023-02-01T00:53:42;6.60;;;2.75;;
28009;SDS011;15334;49.494;8.410;2023-02-01T00:56:10;5.80;;;3.10;;
28009;SDS011;15334;49.494;8.410;2023-02-01T00:58:39;7.85;;;3.83;;
28009;SDS011;15334;49.494;8.410;2023-02-01T01:01:11;10.07;;;3.45;;
28009;SDS011;15334;49.494;8.410;2023-02-01T01:03:44;5.95;;;3.10;;
28009;SDS011;15334;49.494;8.410;2023-02-01T01:06:14;8.13;;;3.20;;
28009;SDS011;15334;49.494;8.410;2023-02-01T01:08:43;5.43;;;2.97;;
28009;SDS011;15334;49.494;8.410;2023-02-01T01:11:12;5.78;;;3.45;;
28009;SDS011;15334;49.494;8.410;2023-02-01T01:13:42;5.95;;;3.35;;
28009;SDS011;15334;49.494;8.410;2023-02-01T01:16:10;8.85;;;3.15;;
28009;SDS011;15334;49.494;8.410;2023-02-01T01:18:40;5.93;;;3.22;;
28009;SDS011;15334;49.494;8.410;2023-02-01T01:21:12;10.75;;;3.50;;
28009;SDS011;15334;49.494;8.410;2023-02-01T01:23:41;6.15;;;3.30;;
28009;SDS011;15334;49.494;8.410;2023-02-01T01:26:10;7.82;;;3.50;;
28009;SDS011;15334;49.494;8.410;2023-02-01T01:28:40;6.75;;;3.58;;
28009;SDS011;15334;49.494;8.410;2023-02-01T01:31:09;7.22;;;3.78;;
28009;SDS011;15334;49.494;8.410;2023-02-01T01:33:37;7.80;;;3.53;;
28009;SDS011;15334;49.494;8.410;2023-02-01T01:36:07;7.30;;;3.60;;
28009;SDS011;15334;49.494;8.410;2023-02-01T01:38:37;9.23;;;3.33;;
28009;SDS011;15334;49.494;8.410;2023-02-01T01:41:05;7.57;;;3.72;;
28009;SDS011;15334;49.494;8.410;2023-02-01T01:43:47;6.70;;;3.53;;
28009;SDS011;15334;49.494;8.410;2023-02-01T01:46:23;7.30;;;3.38;;
28009;SDS011;15334;49.494;8.410;2023-02-01T01:48:57;4.60;;;2.83;;
28009;SDS011;15334;49.494;8.410;2023-02-01T01:51:31;5.93;;;2.92;;
28009;SDS011;15334;49.494;8.410;2023-02-01T01:54:05;7.85;;;3.30;;
28009;SDS011;15334;49.494;8.410;2023-02-01T01:56:38;6.65;;;3.05;;
28009;SDS011;15334;49.494;8.410;2023-02-01T01:59:07;6.10;;;2.58;;
28009;SDS011;15334;49.494;8.410;2023-02-01T02:01:36;4.97;;;2.83;;
28009;SDS011;15334;49.494;8.410;2023-02-01T02:04:06;8.35;;;3.35;;
28009;SDS011;15334;49.494;8.410;2023-02-01T02:06:36;8.68;;;3.00;;
28009;SDS011;15334;49.494;8.410;2023-02-01T02:09:14;5.95;;;3.35;;
28009;SDS011;15334;49.494;8.410;2023-02-01T02:11:43;5.40;;;3.20;;
28009;SDS011;15334;49.494;8.410;2023-02-01T02:14:11;5.63;;;3.00;;
28009;SDS011;15334;49.494;8.410;2023-02-01T02:16:48;7.18;;;3.25;;
28009;SDS011;15334;49.494;8.410;2023-02-01T02:19:48;7.40;;;3.42;;
28009;SDS011;15334;49.494;8.410;2023-02-01T02:25:47;7.63;;;3.33;;
28009;SDS011;15334;49.494;8.410;2023-02-01T02:28:32;6.00;;;3.10;;
28009;SDS011;15334;49.494;8.410;2023-02-01T02:31:37;7.35;;;3.35;;
28009;SDS011;15334;49.494;8.410;2023-02-01T02:34:26;7.07;;;2.95;;
28009;SDS011;15334;49.494;8.410;2023-02-01T02:37:01;6.57;;;3.25;;
28009;SDS011;15334;49.494;8.410;2023-02-01T02:39:38;5.60;;;2.90;;
28009;SDS011;15334;49.494;8.410;2023-02-01T02:42:17;10.82;;;4.22;;
28009;SDS011;15334;49.494;8.410;2023-02-01T02:45:12;7.25;;;3.13;;
28009;SDS011;15334;49.494;8.410;2023-02-01T02:48:03;6.03;;;3.28;;
28009;SDS011;15334;49.494;8.410;2023-02-01T02:50:38;7.78;;;3.60;;
28009;SDS011;15334;49.494;8.410;2023-02-01T02:53:27;8.02;;;3.38;;
28009;SDS011;15334;49.494;8.410;2023-02-01T02:56:18;8.02;;;3.30;;
28009;SDS011;15334;49.494;8.410;2023-02-01T02:59:06;9.40;;;3.88;;
28009;SDS011;15334;49.494;8.410;2023-02-01T03:01:53;6.05;;;3.50;;
28009;SDS011;15334;49.494;8.410;2023-02-01T03:04:39;9.02;;;3.83;;
28009;SDS011;15334;49.494;8.410;2023-02-01T03:07:13;8.20;;;4.10;;
28009;SDS011;15334;49.494;8.410;2023-02-01T03:10:04;7.45;;;3.60;;
28009;SDS011;15334;49.494;8.410;2023-02-01T03:12:38;7.85;;;3.33;;
28009;SDS011;15334;49.494;8.410;2023-02-01T03:15:25;10.02;;;4.10;;
28009;SDS011;15334;49.494;8.410;2023-02-01T03:17:59;7.60;;;3.78;;
28009;SDS011;15334;49.494;8.410;2023-02-01T03:20:33;6.82;;;3.38;;
28009;SDS011;15334;49.494;8.410;2023-02-01T03:23:04;11.88;;;4.22;;
28009;SDS011;15334;49.494;8.410;2023-02-01T03:25:34;8.98;;;4.38;;
28009;SDS011;15334;49.494;8.410;2023-02-01T03:28:03;6.95;;;3.38;;
28009;SDS011;15334;49.494;8.410;2023-02-01T03:30:36;9.82;;;3.28;;
28009;SDS011;15334;49.494;8.410;2023-02-01T03:35:49;10.00;;;3.88;;
28009;SDS011;15334;49.494;8.410;2023-02-01T03:38:24;9.30;;;3.63;;
28009;SDS011;15334;49.494;8.410;2023-02-01T03:40:58;8.25;;;3.47;;
28009;SDS011;15334;49.494;8.410;2023-02-01T03:43:31;7.13;;;3.05;;
28009;SDS011;15334;49.494;8.410;2023-02-01T03:46:05;8.60;;;3.38;;
28009;SDS011;15334;49.494;8.410;2023-02-01T03:48:39;4.68;;;2.75;;
28009;SDS011;15334;49.494;8.410;2023-02-01T03:51:09;10.80;;;3.67;;
28009;SDS011;15334;49.494;8.410;2023-02-01T03:53:41;13.88;;;4.07;;
28009;SDS011;15334;49.494;8.410;2023-02-01T03:56:14;7.43;;;3.88;;
28009;SDS011;15334;49.494;8.410;2023-02-01T03:58:45;8.07;;;3.30;;
28009;SDS011;15334;49.494;8.410;2023-02-01T04:01:26;6.40;;;3.20;;
28009;SDS011;15334;49.494;8.410;2023-02-01T04:03:55;7.18;;;3.60;;
28009;SDS011;15334;49.494;8.410;2023-02-01T04:06:23;5.97;;;3.58;;
28009;SDS011;15334;49.494;8.410;2023-02-01T04:08:52;8.23;;;3.55;;
28009;SDS011;15334;49.494;8.410;2023-02-01T04:11:21;9.00;;;4.03;;
28009;SDS011;15334;49.494;8.410;2023-02-01T04:13:49;8.05;;;3.80;;
28009;SDS011;15334;49.494;8.410;2023-02-01T04:16:17;7.88;;;3.72;;
28009;SDS011;15334;49.494;8.410;2023-02-01T04:18:45;6.82;;;4.13;;
28009;SDS011;15334;49.494;8.410;2023-02-01T04:21:13;9.00;;;3.92;;
28009;SDS011;15334;49.494;8.410;2023-02-01T04:23:41;8.82;;;3.15;;
28009;SDS011;15334;49.494;8.410;2023-02-01T04:26:09;9.73;;;4.55;;
28009;SDS011;15334;49.494;8.410;2023-02-01T04:28:38;9.48;;;4.35;;
28009;SDS011;15334;49.494;8.410;2023-02-01T04:31:06;6.78;;;3.55;;
28009;SDS011;15334;49.494;8.410;2023-02-01T04:33:34;6.75;;;3.53;;
28009;SDS011;15334;49.494;8.410;2023-02-01T04:36:02;7.75;;;4.10;;
28009;SDS011;15334;49.494;8.410;2023-02-01T04:38:31;14.70;;;3.67;;
28009;SDS011;15334;49.494;8.410;2023-02-01T04:40:59;7.97;;;3.75;;
28009;SDS011;15334;49.494;8.410;2023-02-01T04:43:27;6.88;;;3.40;;
28009;SDS011;15334;49.494;8.410;2023-02-01T04:45:56;5.93;;;3.22;;
28009;SDS011;15334;49.494;8.410;2023-02-01T04:48:25;8.13;;;3.40;;
28009;SDS011;15334;49.494;8.410;2023-02-01T04:50:53;8.73;;;4.10;;
28009;SDS011;15334;49.494;8.410;2023-02-01T04:53:22;8.93;;;4.03;;
28009;SDS011;15334;49.494;8.410;2023-02-01T04:55:50;8.00;;;3.33;;
28009;SDS011;15334;49.494;8.410;2023-02-01T04:58:21;8.80;;;3.67;;
28009;SDS011;15334;49.494;8.410;2023-02-01T05:00:49;8.07;;;3.17;;
28009;SDS011;15334;49.494;8.410;2023-02-01T05:03:20;10.18;;;3.42;;
28009;SDS011;15334;49.494;8.410;2023-02-01T05:05:48;8.30;;;3.10;;
28009;SDS011;15334;49.494;8.410;2023-02-01T05:08:20;11.75;;;3.53;;
28009;SDS011;15334;49.494;8.410;2023-02-01T05:10:48;8.57;;;3.40;;
28009;SDS011;15334;49.494;8.410;2023-02-01T05:13:20;7.45;;;2.92;;
28009;SDS011;15334;49.494;8.410;2023-02-01T05:16:05;6.97;;;3.42;;
28009;SDS011;15334;49.494;8.410;2023-02-01T05:18:35;9.93;;;3.63;;
28009;SDS011;15334;49.494;8.410;2023-02-01T05:21:03;9.07;;;3.85;;
28009;SDS011;15334;49.494;8.410;2023-02-01T05:23:33;12.65;;;4.10;;
28009;SDS011;15334;49.494;8.410;2023-02-01T05:26:21;9.93;;;3.65;;
28009;SDS011;15334;49.494;8.410;2023-02-01T05:28:55;9.52;;;3.97;;
28009;SDS011;15334;49.494;8.410;2023-02-01T05:31:24;11.75;;;4.05;;
28009;SDS011;15334;49.494;8.410;2023-02-01T05:33:53;10.02;;;4.53;;
28009;SDS011;15334;49.494;8.410;2023-02-01T05:36:21;9.57;;;3.92;;
28009;SDS011;15334;49.494;8.410;2023-02-01T05:38:50;13.82;;;4.65;;
28009;SDS011;15334;49.494;8.410;2023-02-01T05:41:18;9.52;;;4.45;;
28009;SDS011;15334;49.494;8.410;2023-02-01T05:43:52;12.23;;;4.38;;
28009;SDS011;15334;49.494;8.410;2023-02-01T05:46:22;9.15;;;3.85;;
28009;SDS011;15334;49.494;8.410;2023-02-01T05:48:51;14.68;;;4.70;;
28009;SDS011;15334;49.494;8.410;2023-02-01T05:51:20;10.13;;;4.20;;
28009;SDS011;15334;49.494;8.410;2023-02-01T05:53:49;9.95;;;4.00;;
28009;SDS011;15334;49.494;8.410;2023-02-01T05:56:17;8.40;;;4.30;;
28009;SDS011;15334;49.494;8.410;2023-02-01T05:58:48;5.65;;;3.28;;
28009;SDS011;15334;49.494;8.410;2023-02-01T06:01:16;7.60;;;3.30;;
28009;SDS011;15334;49.494;8.410;2023-02-01T06:03:44;8.48;;;3.60;;
28009;SDS011;15334;49.494;8.410;2023-02-01T06:06:12;8.15;;;3.05;;
28009;SDS011;15334;49.494;8.410;2023-02-01T06:08:42;8.77;;;3.42;;
28009;SDS011;15334;49.494;8.410;2023-02-01T06:11:10;12.43;;;3.15;;
28009;SDS011;15334;49.494;8.410;2023-02-01T06:13:57;11.95;;;3.90;;
28009;SDS011;15334;49.494;8.410;2023-02-01T06:16:25;9.98;;;4.25;;
28009;SDS011;15334;49.494;8.410;2023-02-01T06:18:54;5.63;;;3.13;;
28009;SDS011;15334;49.494;8.410;2023-02-01T06:21:22;8.07;;;3.50;;
28009;SDS011;15334;49.494;8.410;2023-02-01T06:23:52;8.18;;;3.35;;
28009;SDS011;15334;49.494;8.410;2023-02-01T06:26:21;6.13;;;3.55;;
28009;SDS011;15334;49.494;8.410;2023-02-01T06:28:49;10.00;;;3.83;;
28009;SDS011;15334;49.494;8.410;2023-02-01T06:31:17;7.95;;;3.45;;
28009;SDS011;15334;49.494;8.410;2023-02-01T06:33:45;7.53;;;3.50;;
28009;SDS011;15334;49.494;8.410;2023-02-01T06:36:15;6.88;;;2.83;;
28009;SDS011;15334;49.494;8.410;2023-02-01T06:38:44;6.88;;;2.80;;
28009;SDS011;15334;49.494;8.410;2023-02-01T06:41:14;7.03;;;2.78;;
28009;SDS011;15334;49.494;8.410;2023-02-01T06:43:42;9.00;;;3.08;;
28009;SDS011;15334;49.494;8.410;2023-02-01T06:46:12;7.93;;;3.55;;
28009;SDS011;15334;49.494;8.410;2023-02-01T06:48:40;8.07;;;3.20;;
28009;SDS011;15334;49.494;8.410;2023-02-01T06:51:16;11.38;;;3.15;;
28009;SDS011;15334;49.494;8.410;2023-02-01T06:53:46;10.60;;;3.38;;
28009;SDS011;15334;49.494;8.410;2023-02-01T06:56:15;9.95;;;3.45;;
28009;SDS011;15334;49.494;8.410;2023-02-01T06:58:44;15.43;;;3.45;;
28009;SDS011;15334;49.494;8.410;2023-02-01T07:01:12;9.27;;;3.72;;
28009;SDS011;15334;49.494;8.410;2023-02-01T07:03:41;11.23;;;3.90;;
28009;SDS011;15334;49.494;8.410;2023-02-01T07:06:10;6.57;;;3.70;;
28009;SDS011;15334;49.494;8.410;2023-02-01T07:08:38;11.77;;;3.90;;
28009;SDS011;15334;49.494;8.410;2023-02-01T07:11:06;8.65;;;3.20;;
28009;SDS011;15334;49.494;8.410;2023-02-01T07:13:37;8.25;;;3.38;;
28009;SDS011;15334;49.494;8.410;2023-02-01T07:16:06;7.32;;;3.17;;
28009;SDS011;15334;49.494;8.410;2023-02-01T07:18:37;9.90;;;3.70;;
28009;SDS011;15334;49.494;8.410;2023-02-01T07:21:05;9.18;;;2.80;;
28009;SDS011;15334;49.494;8.410;2023-02-01T07:23:33;5.80;;;2.53;;
28009;SDS011;15334;49.494;8.410;2023-02-01T07:26:02;11.55;;;3.58;;
28009;SDS011;15334;49.494;8.410;2023-02-01T07:28:31;7.18;;;3.30;;
28009;SDS011;15334;49.494;8.410;2023-02-01T07:31:05;8.57;;;3.17;;
28009;SDS011;15334;49.494;8.410;2023-02-01T07:33:34;8.57;;;2.92;;
28009;SDS011;15334;49.494;8.410;2023-02-01T07:36:03;11.88;;;3.55;;
28009;SDS011;15334;49.494;8.410;2023-02-01T07:38:33;9.20;;;3.10;;
28009;SDS011;15334;49.494;8.410;2023-02-01T07:41:02;16.02;;;3.15;;
28009;SDS011;15334;49.494;8.410;2023-02-01T07:43:32;7.70;;;3.00;;
28009;SDS011;15334;49.494;8.410;2023-02-01T07:46:00;8.45;;;3.20;;
28009;SDS011;15334;49.494;8.410;2023-02-01T07:48:31;8.45;;;3.10;;
28009;SDS011;15334;49.494;8.410;2023-02-01T07:51:01;10.75;;;3.03;;
28009;SDS011;15334;49.494;8.410;2023-02-01T07:53:32;8.50;;;3.05;;
28009;SDS011;15334;49.494;8.410;2023-02-01T07:56:01;10.23;;;3.20;;
28009;SDS011;15334;49.494;8.410;2023-02-01T07:58:37;9.10;;;3.15;;
28009;SDS011;15334;49.494;8.410;2023-02-01T08:01:05;7.78;;;2.60;;
28009;SDS011;15334;49.494;8.410;2023-02-01T08:03:52;12.57;;;2.85;;
28009;SDS011;15334;49.494;8.410;2023-02-01T08:06:22;7.05;;;2.97;;
28009;SDS011;15334;49.494;8.410;2023-02-01T08:08:51;8.10;;;3.00;;
28009;SDS011;15334;49.494;8.410;2023-02-01T08:11:20;10.13;;;3.15;;
28009;SDS011;15334;49.494;8.410;2023-02-01T08:13:49;8.50;;;2.88;;
28009;SDS011;15334;49.494;8.410;2023-02-01T08:16:18;10.60;;;2.78;;
28009;SDS011;15334;49.494;8.410;2023-02-01T08:18:47;9.13;;;2.45;;
28009;SDS011;15334;49.494;8.410;2023-02-01T08:21:17;8.13;;;2.28;;
28009;SDS011;15334;49.494;8.410;2023-02-01T08:23:48;9.55;;;2.63;;
28009;SDS011;15334;49.494;8.410;2023-02-01T08:26:17;7.00;;;2.55;;
28009;SDS011;15334;49.494;8.410;2023-02-01T08:28:47;8.25;;;2.28;;
28009;SDS011;15334;49.494;8.410;2023-02-01T08:31:17;8.40;;;2.75;;
28009;SDS011;15334;49.494;8.410;2023-02-01T08:33:47;8.77;;;2.17;;
28009;SDS011;15334;49.494;8.410;2023-02-01T08:36:18;5.53;;;2.00;;
28009;SDS011;15334;49.494;8.410;2023-02-01T08:38:46;9.98;;;2.42;;
28009;SDS011;15334;49.494;8.410;2023-02-01T08:41:15;5.13;;;2.30;;
28009;SDS011;15334;49.494;8.410;2023-02-01T08:43:45;8.15;;;2.80;;
28009;SDS011;15334;49.494;8.410;2023-02-01T08:46:14;6.18;;;3.13;;
28009;SDS011;15334;49.494;8.410;2023-02-01T08:48:42;15.73;;;3.00;;
28009;SDS011;15334;49.494;8.410;2023-02-01T08:51:11;17.67;;;3.33;;
28009;SDS011;15334;49.494;8.410;2023-02-01T08:53:42;9.70;;;3.13;;
28009;SDS011;15334;49.494;8.410;2023-02-01T08:56:11;7.85;;;3.15;;
28009;SDS011;15334;49.494;8.410;2023-02-01T08:58:40;9.40;;;2.90;;
28009;SDS011;15334;49.494;8.410;2023-02-01T09:01:09;11.27;;;3.28;;
28009;SDS011;15334;49.494;8.410;2023-02-01T09:03:38;10.82;;;3.00;;
28009;SDS011;15334;49.494;8.410;2023-02-01T09:06:07;16.77;;;3.40;;
28009;SDS011;15334;49.494;8.410;2023-02-01T09:08:38;11.40;;;2.80;;
28009;SDS011;15334;49.494;8.410;2023-02-01T09:11:10;13.25;;;3.35;;
28009;SDS011;15334;49.494;8.410;2023-02-01T09:13:40;10.05;;;2.83;;
28009;SDS011;15334;49.494;8.410;2023-02-01T09:16:08;16.80;;;3.25;;
28009;SDS011;15334;49.494;8.410;2023-02-01T09:18:37;13.60;;;2.85;;
28009;SDS011;15334;49.494;8.410;2023-02-01T09:21:25;12.75;;;3.13;;
28009;SDS011;15334;49.494;8.410;2023-02-01T09:23:52;9.45;;;3.00;;
28009;SDS011;15334;49.494;8.410;2023-02-01T09:26:22;11.07;;;2.97;;
28009;SDS011;15334;49.494;8.410;2023-02-01T09:28:58;6.53;;;2.20;;
28009;SDS011;15334;49.494;8.410;2023-02-01T09:31:26;10.63;;;2.35;;
28009;SDS011;15334;49.494;8.410;2023-02-01T09:33:54;13.93;;;2.63;;
28009;SDS011;15334;49.494;8.410;2023-02-01T09:36:24;11.60;;;2.80;;
28009;SDS011;15334;49.494;8.410;2023-02-01T09:38:55;9.93;;;2.60;;
28009;SDS011;15334;49.494;8.410;2023-02-01T09:41:31;10.77;;;2.55;;
28009;SDS011;15334;49.494;8.410;2023-02-01T09:44:07;9.70;;;2.53;;
28009;SDS011;15334;49.494;8.410;2023-02-01T09:46:45;11.55;;;2.92;;
28009;SDS011;15334;49.494;8.410;2023-02-01T09:49:15;20.88;;;2.35;;
28009;SDS011;15334;49.494;8.410;2023-02-01T09:51:48;12.55;;;3.47;;
28009;SDS011;15334;49.494;8.410;2023-02-01T09:54:18;15.00;;;2.45;;
28009;SDS011;15334;49.494;8.410;2023-02-01T09:56:51;9.40;;;2.85;;
28009;SDS011;15334;49.494;8.410;2023-02-01T09:59:26;8.75;;;2.40;;
28009;SDS011;15334;49.494;8.410;2023-02-01T10:02:00;6.97;;;2.13;;
28009;SDS011;15334;49.494;8.410;2023-02-01T10:04:30;12.50;;;2.92;;
28009;SDS011;15334;49.494;8.410;2023-02-01T10:07:05;9.50;;;2.40;;
28009;SDS011;15334;49.494;8.410;2023-02-01T10:09:44;12.43;;;1.90;;
28009;SDS011;15334;49.494;8.410;2023-02-01T10:12:36;10.05;;;3.10;;
28009;SDS011;15334;49.494;8.410;2023-02-01T10:15:28;12.60;;;3.10;;
28009;SDS011;15334;49.494;8.410;2023-02-01T10:18:15;11.70;;;2.42;;
28009;SDS011;15334;49.494;8.410;2023-02-01T10:20:56;6.22;;;2.00;;
28009;SDS011;15334;49.494;8.410;2023-02-01T10:26:21;10.97;;;2.17;;
28009;SDS011;15334;49.494;8.410;2023-02-01T10:28:52;14.38;;;2.25;;
28009;SDS011;15334;49.494;8.410;2023-02-01T10:31:24;10.65;;;2.63;;
28009;SDS011;15334;49.494;8.410;2023-02-01T10:33:56;6.72;;;2.28;;
28009;SDS011;15334;49.494;8.410;2023-02-01T10:36:29;17.70;;;2.70;;
28009;SDS011;15334;49.494;8.410;2023-02-01T10:39:02;8.85;;;2.53;;
28009;SDS011;15334;49.494;8.410;2023-02-01T10:41:38;8.75;;;2.15;;
28009;SDS011;15334;49.494;8.410;2023-02-01T10:44:11;11.63;;;2.72;;
28009;SDS011;15334;49.494;8.410;2023-02-01T10:46:41;13.77;;;2.80;;
28009;SDS011;15334;49.494;8.410;2023-02-01T10:49:11;10.65;;;2.30;;
28009;SDS011;15334;49.494;8.410;2023-02-01T10:51:45;14.27;;;3.00;;
28009;SDS011;15334;49.494;8.410;2023-02-01T10:54:18;9.50;;;2.20;;
28009;SDS011;15334;49.494;8.410;2023-02-01T10:56:47;11.15;;;2.90;;
28009;SDS011;15334;49.494;8.410;2023-02-01T10:59:18;9.70;;;2.80;;
28009;SDS011;15334;49.494;8.410;2023-02-01T11:01:48;9.60;;;2.50;;
28009;SDS011;15334;49.494;8.410;2023-02-01T11:04:18;13.55;;;2.38;;
28009;SDS011;15334;49.494;8.410;2023-02-01T11:06:47;6.63;;;2.53;;
28009;SDS011;15334;49.494;8.410;2023-02-01T11:09:19;12.20;;;2.60;;
28009;SDS011;15334;49.494;8.410;2023-02-01T11:11:55;10.52;;;2.13;;
28009;SDS011;15334;49.494;8.410;2023-02-01T11:14:34;11.43;;;2.45;;
28009;SDS011;15334;49.494;8.410;2023-02-01T11:17:16;10.95;;;2.35;;
28009;SDS011;15334;49.494;8.410;2023-02-01T11:19:56;9.48;;;2.72;;
28009;SDS011;15334;49.494;8.410;2023-02-01T11:22:26;13.10;;;2.50;;
28009;SDS011;15334;49.494;8.410;2023-02-01T11:24:56;14.38;;;2.15;;
28009;SDS011;15334;49.494;8.410;2023-02-01T11:27:25;11.43;;;2.28;;
28009;SDS011;15334;49.494;8.410;2023-02-01T11:29:56;14.23;;;2.33;;
28009;SDS011;15334;49.494;8.410;2023-02-01T11:32:28;11.93;;;2.58;;
28009;SDS011;15334;49.494;8.410;2023-02-01T11:34:57;10.45;;;2.90;;
28009;SDS011;15334;49.494;8.410;2023-02-01T11:37:29;14.02;;;2.63;;
28009;SDS011;15334;49.494;8.410;2023-02-01T11:40:00;8.93;;;2.10;;
28009;SDS011;15334;49.494;8.410;2023-02-01T11:42:30;15.82;;;2.55;;
28009;SDS011;15334;49.494;8.410;2023-02-01T11:45:18;7.78;;;3.25;;
28009;SDS011;15334;49.494;8.410;2023-02-01T11:47:48;13.98;;;2.40;;
28009;SDS011;15334;49.494;8.410;2023-02-01T11:50:22;8.50;;;2.40;;
28009;SDS011;15334;49.494;8.410;2023-02-01T11:53:04;11.98;;;2.25;;
28009;SDS011;15334;49.494;8.410;2023-02-01T11:55:49;13.43;;;2.30;;
28009;SDS011;15334;49.494;8.410;2023-02-01T11:58:39;15.45;;;2.50;;
28009;SDS011;15334;49.494;8.410;2023-02-01T12:01:30;15.35;;;2.40;;
28009;SDS011;15334;49.494;8.410;2023-02-01T12:07:04;11.00;;;2.70;;
28009;SDS011;15334;49.494;8.410;2023-02-01T12:09:48;8.25;;;2.30;;
28009;SDS011;15334;49.494;8.410;2023-02-01T12:12:28;8.93;;;2.63;;
28009;SDS011;15334;49.494;8.410;2023-02-01T12:17:54;12.63;;;3.45;;
28009;SDS011;15334;49.494;8.410;2023-02-01T12:20:51;10.57;;;2.10;;
28009;SDS011;15334;49.494;8.410;2023-02-01T12:26:35;7.57;;;2.17;;
28009;SDS011;15334;49.494;8.410;2023-02-01T12:32:16;11.30;;;2.58;;
28009;SDS011;15334;49.494;8.410;2023-02-01T12:35:00;12.10;;;2.15;;
28009;SDS011;15334;49.494;8.410;2023-02-01T12:37:51;12.15;;;2.75;;
28009;SDS011;15334;49.494;8.410;2023-02-01T12:40:28;9.05;;;2.50;;
28009;SDS011;15334;49.494;8.410;2023-02-01T12:43:07;18.38;;;2.25;;
28009;SDS011;15334;49.494;8.410;2023-02-01T12:45:41;10.23;;;2.45;;
28009;SDS011;15334;49.494;8.410;2023-02-01T12:48:18;9.38;;;2.40;;
28009;SDS011;15334;49.494;8.410;2023-02-01T12:50:56;9.15;;;2.28;;
28009;SDS011;15334;49.494;8.410;2023-02-01T12:53:30;15.90;;;2.83;;
28009;SDS011;15334;49.494;8.410;2023-02-01T12:56:11;9.70;;;2.33;;
28009;SDS011;15334;49.494;8.410;2023-02-01T12:58:49;13.20;;;2.40;;
28009;SDS011;15334;49.494;8.410;2023-02-01T13:01:21;10.57;;;2.38;;
28009;SDS011;15334;49.494;8.410;2023-02-01T13:03:56;8.02;;;2.40;;
28009;SDS011;15334;49.494;8.410;2023-02-01T13:06:37;15.55;;;3.67;;
28009;SDS011;15334;49.494;8.410;2023-02-01T13:09:14;9.32;;;2.05;;
28009;SDS011;15334;49.494;8.410;2023-02-01T13:11:47;13.40;;;1.98;;
28009;SDS011;15334;49.494;8.410;2023-02-01T13:14:19;8.85;;;2.40;;
28009;SDS011;15334;49.494;8.410;2023-02-01T13:16:56;8.45;;;2.17;;
28009;SDS011;15334;49.494;8.410;2023-02-01T13:19:28;10.98;;;2.50;;
28009;SDS011;15334;49.494;8.410;2023-02-01T13:22:10;16.92;;;2.70;;
28009;SDS011;15334;49.494;8.410;2023-02-01T13:24:43;7.18;;;2.15;;
28009;SDS011;15334;49.494;8.410;2023-02-01T13:27:15;11.07;;;2.45;;
28009;SDS011;15334;49.494;8.410;2023-02-01T13:29:46;8.77;;;2.13;;
28009;SDS011;15334;49.494;8.410;2023-02-01T13:35:40;5.95;;;1.77;;
28009;SDS011;15334;49.494;8.410;2023-02-01T13:38:36;14.45;;;2.70;;
28009;SDS011;15334;49.494;8.410;2023-02-01T13:41:32;10.75;;;2.20;;
28009;SDS011;15334;49.494;8.410;2023-02-01T13:44:10;10.07;;;2.08;;
28009;SDS011;15334;49.494;8.410;2023-02-01T13:46:42;11.13;;;2.33;;
28009;SDS011;15334;49.494;8.410;2023-02-01T13:49:17;13.60;;;2.10;;
28009;SDS011;15334;49.494;8.410;2023-02-01T13:51:49;7.63;;;2.13;;
28009;SDS011;15334;49.494;8.410;2023-02-01T13:54:27;6.32;;;2.30;;
28009;SDS011;15334;49.494;8.410;2023-02-01T13:56:57;8.90;;;2.10;;
28009;SDS011;15334;49.494;8.410;2023-02-01T13:59:37;13.50;;;2.47;;
28009;SDS011;15334;49.494;8.410;2023-02-01T14:02:47;4.97;;;1.83;;
28009;SDS011;15334;49.494;8.410;2023-02-01T14:08:39;9.93;;;2.10;;
28009;SDS011;15334;49.494;8.410;2023-02-01T14:11:34;5.95;;;1.75;;
28009;SDS011;15334;49.494;8.410;2023-02-01T14:23:14;8.10;;;2.38;;
28009;SDS011;15334;49.494;8.410;2023-02-01T14:25:44;9.00;;;2.15;;
28009;SDS011;15334;49.494;8.410;2023-02-01T14:28:22;9.38;;;1.60;;
28009;SDS011;15334;49.494;8.410;2023-02-01T14:30:53;7.18;;;2.03;;
28009;SDS011;15334;49.494;8.410;2023-02-01T14:33:23;11.45;;;1.70;;
28009;SDS011;15334;49.494;8.410;2023-02-01T14:35:57;8.20;;;2.20;;
28009;SDS011;15334;49.494;8.410;2023-02-01T14:38:33;6.75;;;1.75;;
28009;SDS011;15334;49.494;8.410;2023-02-01T14:47:10;7.38;;;2.05;;
28009;SDS011;15334;49.494;8.410;2023-02-01T14:49:56;9.98;;;2.13;;
28009;SDS011;15334;49.494;8.410;2023-02-01T14:52:32;8.18;;;1.85;;
28009;SDS011;15334;49.494;8.410;2023-02-01T14:55:05;11.52;;;1.85;;
28009;SDS011;15334;49.494;8.410;2023-02-01T14:57:37;7.78;;;1.52;;
28009;SDS011;15334;49.494;8.410;2023-02-01T15:00:14;9.70;;;2.30;;
28009;SDS011;15334;49.494;8.410;2023-02-01T15:02:46;11.10;;;2.22;;
28009;SDS011;15334;49.494;8.410;2023-02-01T15:05:27;6.03;;;1.75;;
28009;SDS011;15334;49.494;8.410;2023-02-01T15:07:59;10.70;;;2.22;;
28009;SDS011;15334;49.494;8.410;2023-02-01T15:10:33;5.30;;;1.52;;
28009;SDS011;15334;49.494;8.410;2023-02-01T15:13:17;8.77;;;2.22;;
28009;SDS011;15334;49.494;8.410;2023-02-01T15:16:01;12.95;;;1.83;;
28009;SDS011;15334;49.494;8.410;2023-02-01T15:18:34;9.48;;;2.25;;
28009;SDS011;15334;49.494;8.410;2023-02-01T15:21:03;4.32;;;1.98;;
28009;SDS011;15334;49.494;8.410;2023-02-01T15:24:03;12.68;;;1.90;;
28009;SDS011;15334;49.494;8.410;2023-02-01T15:26:37;5.60;;;2.05;;
28009;SDS011;15334;49.494;8.410;2023-02-01T15:29:09;4.32;;;1.58;;
28009;SDS011;15334;49.494;8.410;2023-02-01T15:31:40;9.75;;;2.17;;
28009;SDS011;15334;49.494;8.410;2023-02-01T15:34:11;4.55;;;2.05;;
28009;SDS011;15334;49.494;8.410;2023-02-01T15:36:40;8.70;;;1.67;;
28009;SDS011;15334;49.494;8.410;2023-02-01T15:39:27;7.78;;;1.70;;
28009;SDS011;15334;49.494;8.410;2023-02-01T15:41:58;14.55;;;2.72;;
28009;SDS011;15334;49.494;8.410;2023-02-01T15:44:29;10.88;;;2.10;;
28009;SDS011;15334;49.494;8.410;2023-02-01T15:47:07;12.20;;;3.17;;
28009;SDS011;15334;49.494;8.410;2023-02-01T15:49:40;8.90;;;2.53;;
28009;SDS011;15334;49.494;8.410;2023-02-01T15:52:19;10.15;;;2.08;;
28009;SDS011;15334;49.494;8.410;2023-02-01T15:54:52;6.65;;;1.52;;
28009;SDS011;15334;49.494;8.410;2023-02-01T15:57:24;7.75;;;1.60;;
28009;SDS011;15334;49.494;8.410;2023-02-01T15:59:58;10.63;;;2.78;;
28009;SDS011;15334;49.494;8.410;2023-02-01T16:02:35;4.82;;;1.65;;